sensor_id;sensor_type;location;lat;lon;timestamp;pressure;altitude;pressure_sealevel;temperature;humidity
46724;BME280;32463;48.298;11.620;2023-05-24T00:02:09;96444.72;;;13.00;100.00
46724;BME280;32463;48.298;11.620;2023-05-24T00:04:39;96447.81;;;13.04;100.00
46724;BME280;32463;48.298;11.620;2023-05-24T00:07:06;96453.63;;;13.14;100.00
46724;BME280;32463;48.298;11.620;2023-05-24T00:09:32;96449.06;;;13.16;100.00
46724;BME280;32463;48.298;11.620;2023-05-24T00:11:59;96453.94;;;13.11;100.00
46724;BME280;32463;48.298;11.620;2023-05-24T00:14:25;96453.94;;;13.11;100.00
46724;BME280;32463;48.298;11.620;2023-05-24T00:16:52;96453.94;;;13.11;100.00
46724;BME280;32463;48.298;11.620;2023-05-24T00:19:19;96450.72;;;13.09;100.00
46724;BME280;32463;48.298;11.620;2023-05-24T00:21:47;96448.56;;;13.12;100.00
46724;BME280;32463;48.298;11.620;2023-05-24T00:24:14;96462.41;;;13.13;100.00
46724;BME280;32463;48.298;11.620;2023-05-24T00:26:42;96449.38;;;13.13;100.00
46724;BME280;32463;48.298;11.620;2023-05-24T00:29:09;96451.00;;;13.14;100.00
46724;BME280;32463;48.298;11.620;2023-05-24T00:31:37;96446.44;;;13.16;100.00
46724;BME280;32463;48.298;11.620;2023-05-24T00:34:04;96444.47;;;13.18;100.00
46724;BME280;32463;48.298;11.620;2023-05-24T00:36:31;96437.16;;;13.22;100.00
46724;BME280;32463;48.298;11.620;2023-05-24T00:38:58;96434.19;;;13.25;100.00
46724;BME280;32463;48.298;11.620;2023-05-24T00:41:25;96444.78;;;13.23;100.00
46724;BME280;32463;48.298;11.620;2023-05-24T00:43:52;96442.47;;;13.28;100.00
46724;BME280;32463;48.298;11.620;2023-05-24T00:46:27;96435.00;;;13.25;100.00
46724;BME280;32463;48.298;11.620;2023-05-24T00:48:54;96443.41;;;13.35;100.00
46724;BME280;32463;48.298;11.620;2023-05-24T00:51:21;96436.66;;;13.18;100.00
46724;BME280;32463;48.298;11.620;2023-05-24T00:53:48;96436.16;;;13.23;100.00
46724;BME280;32463;48.298;11.620;2023-05-24T00:56:15;96425.28;;;13.19;100.00
46724;BME280;32463;48.298;11.620;2023-05-24T00:58:43;96429.50;;;13.20;100.00
46724;BME280;32463;48.298;11.620;2023-05-24T01:01:10;96428.41;;;13.14;100.00
46724;BME280;32463;48.298;11.620;2023-05-24T01:03:36;96425.63;;;13.16;100.00
46724;BME280;32463;48.298;11.620;2023-05-24T01:06:05;96434.06;;;13.18;100.00
46724;BME280;32463;48.298;11.620;2023-05-24T01:11:28;96435.41;;;13.14;100.00
46724;BME280;32463;48.298;11.620;2023-05-24T01:16:51;96435.72;;;13.11;100.00
46724;BME280;32463;48.298;11.620;2023-05-24T01:19:42;96433.13;;;13.11;100.00
46724;BME280;32463;48.298;11.620;2023-05-24T01:25:22;96431.16;;;13.13;100.00
46724;BME280;32463;48.298;11.620;2023-05-24T01:27:53;96422.03;;;13.17;100.00
46724;BME280;32463;48.298;11.620;2023-05-24T01:30:20;96415.84;;;13.18;100.00
46724;BME280;32463;48.298;11.620;2023-05-24T01:32:47;96424.31;;;13.20;100.00
46724;BME280;32463;48.298;11.620;2023-05-24T01:35:14;96416.16;;;13.15;100.00
46724;BME280;32463;48.298;11.620;2023-05-24T01:37:40;96423.03;;;13.16;100.00
46724;BME280;32463;48.298;11.620;2023-05-24T01:40:07;96420.75;;;13.13;100.00
46724;BME280;32463;48.298;11.620;2023-05-24T01:42:40;96429.19;;;13.15;100.00
46724;BME280;32463;48.298;11.620;2023-05-24T01:52:49;96434.16;;;13.02;100.00
46724;BME280;32463;48.298;11.620;2023-05-24T01:55:17;96433.00;;;13.04;100.00
46724;BME280;32463;48.298;11.620;2023-05-24T01:57:45;96439.31;;;13.10;100.00
46724;BME280;32463;48.298;11.620;2023-05-24T02:00:14;96439.59;;;13.15;100.00
46724;BME280;32463;48.298;11.620;2023-05-24T02:02:43;96442.88;;;13.17;100.00
46724;BME280;32463;48.298;11.620;2023-05-24T02:05:10;96436.72;;;13.10;100.00
46724;BME280;32463;48.298;11.620;2023-05-24T02:07:36;96434.63;;;13.05;100.00
46724;BME280;32463;48.298;11.620;2023-05-24T02:10:03;96439.97;;;13.12;100.00
46724;BME280;32463;48.298;11.620;2023-05-24T02:12:30;96438.34;;;13.11;100.00
46724;BME280;32463;48.298;11.620;2023-05-24T02:14:56;96436.25;;;13.06;100.00
46724;BME280;32463;48.298;11.620;2023-05-24T02:17:24;96435.25;;;13.07;100.00
46724;BME280;32463;48.298;11.620;2023-05-24T02:19:51;96422.59;;;13.04;100.00
46724;BME280;32463;48.298;11.620;2023-05-24T02:22:17;96435.44;;;13.06;100.00
46724;BME280;32463;48.298;11.620;2023-05-24T02:24:46;96432.19;;;13.04;100.00
46724;BME280;32463;48.298;11.620;2023-05-24T02:27:13;96426.00;;;13.05;100.00
46724;BME280;32463;48.298;11.620;2023-05-24T02:29:39;96426.00;;;13.05;100.00
46724;BME280;32463;48.298;11.620;2023-05-24T02:32:07;96428.25;;;13.08;100.00
46724;BME280;32463;48.298;11.620;2023-05-24T02:34:33;96424.38;;;13.04;100.00
46724;BME280;32463;48.298;11.620;2023-05-24T02:37:00;96428.25;;;13.08;100.00
46724;BME280;32463;48.298;11.620;2023-05-24T02:39:27;96428.94;;;13.02;100.00
46724;BME280;32463;48.298;11.620;2023-05-24T02:41:53;96427.66;;;12.98;100.00
46724;BME280;32463;48.298;11.620;2023-05-24T02:44:19;96424.28;;;12.89;100.00
46724;BME280;32463;48.298;11.620;2023-05-24T02:46:46;96434.22;;;12.86;100.00
46724;BME280;32463;48.298;11.620;2023-05-24T02:49:12;96433.59;;;12.84;100.00
46724;BME280;32463;48.298;11.620;2023-05-24T02:51:39;96426.13;;;12.80;100.00
46724;BME280;32463;48.298;11.620;2023-05-24T02:54:05;96429.00;;;12.86;100.00
46724;BME280;32463;48.298;11.620;2023-05-24T02:56:32;96424.19;;;12.82;100.00
46724;BME280;32463;48.298;11.620;2023-05-24T02:58:58;96421.59;;;12.74;100.00
46724;BME280;32463;48.298;11.620;2023-05-24T03:01:25;96426.63;;;12.76;100.00
46724;BME280;32463;48.298;11.620;2023-05-24T03:03:51;96426.81;;;12.74;100.00
46724;BME280;32463;48.298;11.620;2023-05-24T03:06:18;96419.03;;;12.66;100.00
46724;BME280;32463;48.298;11.620;2023-05-24T03:08:44;96420.50;;;12.61;100.00
46724;BME280;32463;48.298;11.620;2023-05-24T03:11:11;96423.34;;;12.51;100.00
46724;BME280;32463;48.298;11.620;2023-05-24T03:13:37;96419.78;;;12.44;100.00
46724;BME280;32463;48.298;11.620;2023-05-24T03:16:04;96422.06;;;12.39;100.00
46724;BME280;32463;48.298;11.620;2023-05-24T03:18:31;96422.72;;;12.33;100.00
46724;BME280;32463;48.298;11.620;2023-05-24T03:20:57;96426.97;;;12.26;100.00
46724;BME280;32463;48.298;11.620;2023-05-24T03:23:24;96423.72;;;12.24;100.00
46724;BME280;32463;48.298;11.620;2023-05-24T03:25:50;96424.06;;;12.21;100.00
46724;BME280;32463;48.298;11.620;2023-05-24T03:28:17;96429.59;;;12.18;100.00
46724;BME280;32463;48.298;11.620;2023-05-24T03:30:46;96432.38;;;12.16;100.00
46724;BME280;32463;48.298;11.620;2023-05-24T03:33:13;96434.00;;;12.17;100.00
46724;BME280;32463;48.298;11.620;2023-05-24T03:35:39;96441.94;;;12.16;100.00
46724;BME280;32463;48.298;11.620;2023-05-24T03:38:06;96437.41;;;12.09;100.00
46724;BME280;32463;48.298;11.620;2023-05-24T03:40:32;96438.72;;;12.05;100.00
46724;BME280;32463;48.298;11.620;2023-05-24T03:42:59;96439.19;;;12.09;100.00
46724;BME280;32463;48.298;11.620;2023-05-24T03:45:25;96443.25;;;12.11;100.00
46724;BME280;32463;48.298;11.620;2023-05-24T03:47:52;96453.00;;;12.09;100.00
46724;BME280;32463;48.298;11.620;2023-05-24T03:50:18;96442.28;;;12.04;100.00
46724;BME280;32463;48.298;11.620;2023-05-24T03:52:44;96443.91;;;12.05;100.00
46724;BME280;32463;48.298;11.620;2023-05-24T03:55:12;96448.13;;;12.06;100.00
46724;BME280;32463;48.298;11.620;2023-05-24T03:57:39;96453.31;;;12.06;100.00
46724;BME280;32463;48.298;11.620;2023-05-24T04:00:07;96450.09;;;12.04;100.00
46724;BME280;32463;48.298;11.620;2023-05-24T04:02:35;96460.16;;;12.07;100.00
46724;BME280;32463;48.298;11.620;2023-05-24T04:05:02;96457.88;;;12.04;100.00
46724;BME280;32463;48.298;11.620;2023-05-24T04:07:29;96469.91;;;12.13;100.00
46724;BME280;32463;48.298;11.620;2023-05-24T04:09:58;96464.38;;;12.00;100.00
46724;BME280;32463;48.298;11.620;2023-05-24T04:12:24;96465.34;;;11.99;100.00
46724;BME280;32463;48.298;11.620;2023-05-24T04:14:51;96471.53;;;11.98;100.00
46724;BME280;32463;48.298;11.620;2023-05-24T04:17:17;96470.72;;;12.06;100.00
46724;BME280;32463;48.298;11.620;2023-05-24T04:19:44;96473.47;;;12.12;100.00
46724;BME280;32463;48.298;11.620;2023-05-24T04:22:11;96465.19;;;12.01;100.00
46724;BME280;32463;48.298;11.620;2023-05-24T04:24:38;96463.06;;;12.12;100.00
46724;BME280;32463;48.298;11.620;2023-05-24T04:27:04;96458.84;;;12.11;100.00
46724;BME280;32463;48.298;11.620;2023-05-24T04:29:31;96455.94;;;12.14;100.00
46724;BME280;32463;48.298;11.620;2023-05-24T04:32:01;96461.13;;;12.14;100.00
46724;BME280;32463;48.298;11.620;2023-05-24T04:34:28;96465.00;;;12.19;100.00
46724;BME280;32463;48.298;11.620;2023-05-24T04:36:58;96470.53;;;12.07;100.00
46724;BME280;32463;48.298;11.620;2023-05-24T04:39:25;96472.97;;;12.09;100.00
46724;BME280;32463;48.298;11.620;2023-05-24T04:41:51;96469.91;;;12.13;100.00
46724;BME280;32463;48.298;11.620;2023-05-24T04:44:19;96473.28;;;12.22;100.00
46724;BME280;32463;48.298;11.620;2023-05-24T04:46:46;96467.94;;;12.16;100.00
46724;BME280;32463;48.298;11.620;2023-05-24T04:49:13;96472.78;;;12.27;100.00
46724;BME280;32463;48.298;11.620;2023-05-24T04:51:39;96462.72;;;12.24;100.00
46724;BME280;32463;48.298;11.620;2023-05-24T04:54:06;96464.53;;;12.15;100.00
46724;BME280;32463;48.298;11.620;2023-05-24T04:56:34;96466.31;;;12.23;100.00
46724;BME280;32463;48.298;11.620;2023-05-24T04:59:03;96470.88;;;12.21;100.00
46724;BME280;32463;48.298;11.620;2023-05-24T05:01:30;96479.63;;;12.03;100.00
46724;BME280;32463;48.298;11.620;2023-05-24T05:03:57;96481.59;;;12.01;100.00
46724;BME280;32463;48.298;11.620;2023-05-24T05:06:23;96472.19;;;11.92;100.00
46724;BME280;32463;48.298;11.620;2023-05-24T05:08:50;96467.28;;;12.05;100.00
46724;BME280;32463;48.298;11.620;2023-05-24T05:11:17;96471.81;;;12.28;100.00
46724;BME280;32463;48.298;11.620;2023-05-24T05:13:44;96468.91;;;12.14;100.00
46724;BME280;32463;48.298;11.620;2023-05-24T05:16:11;96472.81;;;12.19;100.00
46724;BME280;32463;48.298;11.620;2023-05-24T05:18:38;96473.72;;;12.42;100.00
46724;BME280;32463;48.298;11.620;2023-05-24T05:21:05;96473.00;;;12.64;100.00
46724;BME280;32463;48.298;11.620;2023-05-24T05:23:32;96473.50;;;12.60;100.00
46724;BME280;32463;48.298;11.620;2023-05-24T05:25:58;96470.63;;;12.86;100.00
46724;BME280;32463;48.298;11.620;2023-05-24T05:28:25;96464.41;;;13.03;100.00
46724;BME280;32463;48.298;11.620;2023-05-24T05:30:51;96453.00;;;13.04;100.00
46724;BME280;32463;48.298;11.620;2023-05-24T05:33:18;96456.47;;;12.96;100.00
46724;BME280;32463;48.298;11.620;2023-05-24T05:35:44;96466.78;;;13.12;100.00
46724;BME280;32463;48.298;11.620;2023-05-24T05:38:10;96461.47;;;13.06;100.00
46724;BME280;32463;48.298;11.620;2023-05-24T05:40:37;96465.38;;;13.02;100.00
46724;BME280;32463;48.298;11.620;2023-05-24T05:43:04;96455.22;;;13.15;100.00
46724;BME280;32463;48.298;11.620;2023-05-24T05:45:32;96460.22;;;12.86;100.00
46724;BME280;32463;48.298;11.620;2023-05-24T05:47:59;96461.72;;;13.19;100.00
46724;BME280;32463;48.298;11.620;2023-05-24T05:50:25;96455.16;;;13.31;100.00
46724;BME280;32463;48.298;11.620;2023-05-24T05:52:52;96457.50;;;13.18;100.00
46724;BME280;32463;48.298;11.620;2023-05-24T05:55:18;96462.84;;;13.25;100.00
46724;BME280;32463;48.298;11.620;2023-05-24T05:57:45;96472.28;;;13.26;100.00
46724;BME280;32463;48.298;11.620;2023-05-24T06:00:11;96460.84;;;13.58;100.00
46724;BME280;32463;48.298;11.620;2023-05-24T06:02:38;96467.56;;;13.75;100.00
46724;BME280;32463;48.298;11.620;2023-05-24T06:05:05;96460.34;;;14.00;100.00
46724;BME280;32463;48.298;11.620;2023-05-24T06:07:31;96464.16;;;13.89;100.00
46724;BME280;32463;48.298;11.620;2023-05-24T06:09:58;96453.84;;;13.96;100.00
46724;BME280;32463;48.298;11.620;2023-05-24T06:12:24;96463.25;;;13.82;100.00
46724;BME280;32463;48.298;11.620;2023-05-24T06:14:51;96458.84;;;14.05;100.00
46724;BME280;32463;48.298;11.620;2023-05-24T06:17:18;96453.81;;;14.33;100.00
46724;BME280;32463;48.298;11.620;2023-05-24T06:19:48;96454.28;;;14.37;100.00
46724;BME280;32463;48.298;11.620;2023-05-24T06:22:18;96456.28;;;14.64;100.00
46724;BME280;32463;48.298;11.620;2023-05-24T06:24:45;96461.03;;;14.75;100.00
46724;BME280;32463;48.298;11.620;2023-05-24T06:27:13;96448.88;;;14.97;100.00
46724;BME280;32463;48.298;11.620;2023-05-24T06:29:40;96455.28;;;14.95;100.00
46724;BME280;32463;48.298;11.620;2023-05-24T06:32:06;96456.88;;;14.96;100.00
46724;BME280;32463;48.298;11.620;2023-05-24T06:34:33;96455.91;;;14.82;100.00
46724;BME280;32463;48.298;11.620;2023-05-24T06:36:59;96457.16;;;14.86;100.00
46724;BME280;32463;48.298;11.620;2023-05-24T06:39:26;96464.31;;;15.13;100.00
46724;BME280;32463;48.298;11.620;2023-05-24T06:41:53;96455.03;;;15.47;100.00
46724;BME280;32463;48.298;11.620;2023-05-24T06:44:20;96462.31;;;15.52;100.00
46724;BME280;32463;48.298;11.620;2023-05-24T06:46:48;96459.09;;;15.49;100.00
46724;BME280;32463;48.298;11.620;2023-05-24T06:49:14;96462.47;;;15.29;100.00
46724;BME280;32463;48.298;11.620;2023-05-24T06:51:40;96454.34;;;15.38;100.00
46724;BME280;32463;48.298;11.620;2023-05-24T06:54:07;96468.44;;;15.23;100.00
46724;BME280;32463;48.298;11.620;2023-05-24T06:56:33;96466.19;;;15.20;100.00
46724;BME280;32463;48.298;11.620;2023-05-24T06:59:00;96467.63;;;15.22;100.00
46724;BME280;32463;48.298;11.620;2023-05-24T07:01:27;96475.50;;;15.43;100.00
46724;BME280;32463;48.298;11.620;2023-05-24T07:03:53;96475.78;;;15.34;100.00
46724;BME280;32463;48.298;11.620;2023-05-24T07:06:20;96470.81;;;15.75;100.00
46724;BME280;32463;48.298;11.620;2023-05-24T07:08:46;96481.31;;;16.03;94.22
46724;BME280;32463;48.298;11.620;2023-05-24T07:11:13;96473.38;;;16.17;93.80
46724;BME280;32463;48.298;11.620;2023-05-24T07:13:40;96471.41;;;16.26;91.25
46724;BME280;32463;48.298;11.620;2023-05-24T07:16:06;96473.09;;;16.34;91.80
46724;BME280;32463;48.298;11.620;2023-05-24T07:18:32;96469.78;;;16.53;88.85
46724;BME280;32463;48.298;11.620;2023-05-24T07:20:59;96472.81;;;16.50;87.58
46724;BME280;32463;48.298;11.620;2023-05-24T07:23:25;96469.94;;;16.45;88.47
46724;BME280;32463;48.298;11.620;2023-05-24T07:25:52;96474.41;;;16.51;89.37
46724;BME280;32463;48.298;11.620;2023-05-24T07:28:18;96466.56;;;16.23;90.07
46724;BME280;32463;48.298;11.620;2023-05-24T07:30:45;96464.63;;;16.32;88.34
46724;BME280;32463;48.298;11.620;2023-05-24T07:33:11;96474.56;;;16.15;90.99
46724;BME280;32463;48.298;11.620;2023-05-24T07:35:39;96484.91;;;16.58;86.92
46724;BME280;32463;48.298;11.620;2023-05-24T07:38:05;96474.44;;;16.58;90.04
46724;BME280;32463;48.298;11.620;2023-05-24T07:40:32;96472.72;;;17.06;85.12
46724;BME280;32463;48.298;11.620;2023-05-24T07:42:59;96478.44;;;17.29;81.84
46724;BME280;32463;48.298;11.620;2023-05-24T07:45:26;96477.66;;;17.35;80.70
46724;BME280;32463;48.298;11.620;2023-05-24T07:47:52;96477.66;;;17.35;80.51
46724;BME280;32463;48.298;11.620;2023-05-24T07:50:19;96480.31;;;17.42;78.66
46724;BME280;32463;48.298;11.620;2023-05-24T07:52:46;96479.47;;;16.87;82.08
46724;BME280;32463;48.298;11.620;2023-05-24T07:55:14;96472.59;;;16.79;83.28
46724;BME280;32463;48.298;11.620;2023-05-24T07:57:40;96474.13;;;16.67;84.13
46724;BME280;32463;48.298;11.620;2023-05-24T08:00:08;96473.41;;;16.87;81.57
46724;BME280;32463;48.298;11.620;2023-05-24T08:02:40;96476.19;;;16.72;83.98
46724;BME280;32463;48.298;11.620;2023-05-24T08:05:06;96483.03;;;16.73;83.49
46724;BME280;32463;48.298;11.620;2023-05-24T08:07:35;96478.56;;;16.67;82.40
46724;BME280;32463;48.298;11.620;2023-05-24T08:10:01;96474.72;;;17.04;79.81
46724;BME280;32463;48.298;11.620;2023-05-24T08:12:28;96486.84;;;17.11;78.97
46724;BME280;32463;48.298;11.620;2023-05-24T08:14:55;96482.00;;;17.15;80.28
46724;BME280;32463;48.298;11.620;2023-05-24T08:17:22;96482.91;;;17.35;77.36
46724;BME280;32463;48.298;11.620;2023-05-24T08:19:48;96489.25;;;17.67;76.85
46724;BME280;32463;48.298;11.620;2023-05-24T08:22:15;96483.75;;;17.56;77.31
46724;BME280;32463;48.298;11.620;2023-05-24T08:24:41;96484.63;;;17.89;74.02
46724;BME280;32463;48.298;11.620;2023-05-24T08:27:08;96486.63;;;17.74;72.61
46724;BME280;32463;48.298;11.620;2023-05-24T08:29:35;96494.06;;;17.64;73.12
46724;BME280;32463;48.298;11.620;2023-05-24T08:32:02;96489.47;;;17.79;74.94
46724;BME280;32463;48.298;11.620;2023-05-24T08:34:35;96489.50;;;17.92;72.33
46724;BME280;32463;48.298;11.620;2023-05-24T08:37:03;96495.44;;;17.53;75.08
46724;BME280;32463;48.298;11.620;2023-05-24T08:39:29;96492.63;;;17.55;75.78
46724;BME280;32463;48.298;11.620;2023-05-24T08:41:57;96485.56;;;17.62;73.12
46724;BME280;32463;48.298;11.620;2023-05-24T08:44:24;96491.50;;;17.83;69.84
46724;BME280;32463;48.298;11.620;2023-05-24T08:46:51;96494.91;;;17.71;70.55
46724;BME280;32463;48.298;11.620;2023-05-24T08:49:18;96490.88;;;17.68;68.38
46724;BME280;32463;48.298;11.620;2023-05-24T08:51:45;96495.81;;;17.37;71.36
46724;BME280;32463;48.298;11.620;2023-05-24T08:54:13;96496.03;;;17.48;71.47
46724;BME280;32463;48.298;11.620;2023-05-24T08:56:40;96486.13;;;17.37;72.07
46724;BME280;32463;48.298;11.620;2023-05-24T08:59:07;96497.16;;;17.26;70.86
46724;BME280;32463;48.298;11.620;2023-05-24T09:01:36;96485.84;;;17.19;71.38
46724;BME280;32463;48.298;11.620;2023-05-24T09:04:05;96493.44;;;17.62;69.36
46724;BME280;32463;48.298;11.620;2023-05-24T09:06:32;96481.34;;;17.61;68.49
46724;BME280;32463;48.298;11.620;2023-05-24T09:08:59;96488.47;;;17.93;66.69
46724;BME280;32463;48.298;11.620;2023-05-24T09:11:30;96492.31;;;18.17;65.99
46724;BME280;32463;48.298;11.620;2023-05-24T09:13:58;96483.41;;;18.38;65.18
46724;BME280;32463;48.298;11.620;2023-05-24T09:16:25;96487.03;;;18.50;64.08
46724;BME280;32463;48.298;11.620;2023-05-24T09:18:52;96486.44;;;18.48;63.58
46724;BME280;32463;48.298;11.620;2023-05-24T09:21:18;96488.28;;;18.28;63.70
46724;BME280;32463;48.298;11.620;2023-05-24T09:23:45;96485.66;;;18.01;63.54
46724;BME280;32463;48.298;11.620;2023-05-24T09:26:12;96481.38;;;17.74;64.72
46724;BME280;32463;48.298;11.620;2023-05-24T09:28:39;96486.22;;;17.77;63.72
46724;BME280;32463;48.298;11.620;2023-05-24T09:31:06;96494.69;;;17.66;63.97
46724;BME280;32463;48.298;11.620;2023-05-24T09:33:33;96497.47;;;17.64;66.11
46724;BME280;32463;48.298;11.620;2023-05-24T09:36:02;96491.69;;;17.21;66.78
46724;BME280;32463;48.298;11.620;2023-05-24T09:38:29;96491.59;;;16.95;67.43
46724;BME280;32463;48.298;11.620;2023-05-24T09:41:03;96496.44;;;16.98;68.30
46724;BME280;32463;48.298;11.620;2023-05-24T09:43:31;96499.34;;;17.16;66.07
46724;BME280;32463;48.298;11.620;2023-05-24T09:46:01;96501.75;;;17.11;67.37
46724;BME280;32463;48.298;11.620;2023-05-24T09:48:28;96500.47;;;17.55;65.88
46724;BME280;32463;48.298;11.620;2023-05-24T09:51:03;96505.94;;;17.60;62.72
46724;BME280;32463;48.298;11.620;2023-05-24T09:53:34;96507.91;;;17.38;64.36
46724;BME280;32463;48.298;11.620;2023-05-24T09:56:04;96503.56;;;17.17;65.24
46724;BME280;32463;48.298;11.620;2023-05-24T09:58:32;96498.13;;;17.12;65.84
46724;BME280;32463;48.298;11.620;2023-05-24T10:01:07;96503.34;;;17.05;64.61
46724;BME280;32463;48.298;11.620;2023-05-24T10:03:35;96496.13;;;16.45;67.33
46724;BME280;32463;48.298;11.620;2023-05-24T10:06:03;96496.88;;;16.39;68.35
46724;BME280;32463;48.298;11.620;2023-05-24T10:08:35;96498.53;;;16.46;67.82
46724;BME280;32463;48.298;11.620;2023-05-24T10:11:02;96506.09;;;16.35;69.06
46724;BME280;32463;48.298;11.620;2023-05-24T10:13:31;96497.81;;;16.59;67.16
46724;BME280;32463;48.298;11.620;2023-05-24T10:15:57;96505.53;;;17.02;65.55
46724;BME280;32463;48.298;11.620;2023-05-24T10:18:24;96503.47;;;17.45;63.44
46724;BME280;32463;48.298;11.620;2023-05-24T10:20:53;96498.53;;;17.70;61.09
46724;BME280;32463;48.298;11.620;2023-05-24T10:23:21;96496.34;;;17.93;61.40
46724;BME280;32463;48.298;11.620;2023-05-24T10:25:55;96500.97;;;18.04;58.19
46724;BME280;32463;48.298;11.620;2023-05-24T10:28:26;96509.13;;;17.48;61.85
46724;BME280;32463;48.298;11.620;2023-05-24T10:33:21;96522.06;;;17.57;60.95
46724;BME280;32463;48.298;11.620;2023-05-24T10:35:48;96507.16;;;17.64;61.16
46724;BME280;32463;48.298;11.620;2023-05-24T10:38:15;96507.66;;;18.13;58.06
46724;BME280;32463;48.298;11.620;2023-05-24T10:40:42;96514.53;;;18.34;58.07
46724;BME280;32463;48.298;11.620;2023-05-24T10:43:09;96511.28;;;18.12;58.43
46724;BME280;32463;48.298;11.620;2023-05-24T10:45:39;96516.91;;;17.83;58.95
46724;BME280;32463;48.298;11.620;2023-05-24T10:50:40;96528.19;;;17.70;59.34
46724;BME280;32463;48.298;11.620;2023-05-24T10:53:17;96520.59;;;18.02;58.81
46724;BME280;32463;48.298;11.620;2023-05-24T10:55:57;96516.75;;;18.17;57.87
46724;BME280;32463;48.298;11.620;2023-05-24T11:00:59;96511.28;;;18.45;55.61
46724;BME280;32463;48.298;11.620;2023-05-24T11:03:31;96515.28;;;18.88;54.39
46724;BME280;32463;48.298;11.620;2023-05-24T11:05:58;96507.22;;;19.40;53.30
46724;BME280;32463;48.298;11.620;2023-05-24T11:08:33;96504.88;;;17.34;57.44
46724;BME280;32463;48.298;11.620;2023-05-24T11:11:09;96513.31;;;17.97;58.31
46724;BME280;32463;48.298;11.620;2023-05-24T11:13:37;96512.66;;;17.82;57.63
46724;BME280;32463;48.298;11.620;2023-05-24T11:16:04;96517.66;;;17.64;59.20
46724;BME280;32463;48.298;11.620;2023-05-24T11:18:31;96526.56;;;17.69;59.65
46724;BME280;32463;48.298;11.620;2023-05-24T11:21:04;96520.81;;;17.46;59.90
46724;BME280;32463;48.298;11.620;2023-05-24T11:23:31;96520.53;;;17.82;58.52
46724;BME280;32463;48.298;11.620;2023-05-24T11:25:57;96516.13;;;18.22;57.59
46724;BME280;32463;48.298;11.620;2023-05-24T11:28:24;96514.50;;;18.54;55.63
46724;BME280;32463;48.298;11.620;2023-05-24T11:30:51;96516.34;;;18.60;53.78
46724;BME280;32463;48.298;11.620;2023-05-24T11:33:21;96511.06;;;18.73;53.69
46724;BME280;32463;48.298;11.620;2023-05-24T11:35:52;96514.91;;;18.44;53.26
46724;BME280;32463;48.298;11.620;2023-05-24T11:38:20;96515.75;;;18.32;53.56
46724;BME280;32463;48.298;11.620;2023-05-24T11:40:48;96504.00;;;18.08;54.26
46724;BME280;32463;48.298;11.620;2023-05-24T11:43:19;96502.81;;;18.24;55.81
46724;BME280;32463;48.298;11.620;2023-05-24T11:45:48;96503.59;;;18.04;56.09
46724;BME280;32463;48.298;11.620;2023-05-24T11:48:15;96506.34;;;17.57;58.84
46724;BME280;32463;48.298;11.620;2023-05-24T11:50:43;96499.78;;;17.26;58.64
46724;BME280;32463;48.298;11.620;2023-05-24T11:53:14;96505.47;;;17.43;58.34
46724;BME280;32463;48.298;11.620;2023-05-24T11:55:41;96495.78;;;17.43;58.05
46724;BME280;32463;48.298;11.620;2023-05-24T11:58:22;96501.16;;;17.70;55.55
46724;BME280;32463;48.298;11.620;2023-05-24T12:00:49;96504.59;;;17.77;55.37
46724;BME280;32463;48.298;11.620;2023-05-24T12:03:16;96495.91;;;17.83;54.63
46724;BME280;32463;48.298;11.620;2023-05-24T12:05:43;96494.94;;;17.97;55.50
46724;BME280;32463;48.298;11.620;2023-05-24T12:08:11;96503.56;;;17.65;56.70
46724;BME280;32463;48.298;11.620;2023-05-24T12:10:40;96497.41;;;17.44;56.20
46724;BME280;32463;48.298;11.620;2023-05-24T12:13:36;96507.25;;;17.90;55.35
46724;BME280;32463;48.298;11.620;2023-05-24T12:16:05;96499.56;;;18.35;53.51
46724;BME280;32463;48.298;11.620;2023-05-24T12:18:31;96496.25;;;18.99;52.21
46724;BME280;32463;48.298;11.620;2023-05-24T12:20:58;96501.47;;;19.12;50.26
46724;BME280;32463;48.298;11.620;2023-05-24T12:23:26;96496.22;;;19.12;48.96
46724;BME280;32463;48.298;11.620;2023-05-24T12:26:03;96501.72;;;19.48;49.49
46724;BME280;32463;48.298;11.620;2023-05-24T12:28:33;96496.97;;;19.70;48.18
46724;BME280;32463;48.298;11.620;2023-05-24T12:31:03;96510.84;;;19.84;47.60
46724;BME280;32463;48.298;11.620;2023-05-24T12:33:31;96500.75;;;19.36;47.00
46724;BME280;32463;48.298;11.620;2023-05-24T12:35:58;96502.06;;;19.59;46.29
46724;BME280;32463;48.298;11.620;2023-05-24T12:38:25;96507.34;;;19.59;47.27
46724;BME280;32463;48.298;11.620;2023-05-24T12:40:52;96497.88;;;19.44;47.85
46724;BME280;32463;48.298;11.620;2023-05-24T12:43:19;96505.38;;;19.47;47.66
46724;BME280;32463;48.298;11.620;2023-05-24T12:45:46;96506.75;;;19.88;47.64
46724;BME280;32463;48.298;11.620;2023-05-24T12:48:13;96504.72;;;19.90;46.72
46724;BME280;32463;48.298;11.620;2023-05-24T12:50:39;96505.41;;;19.79;45.52
46724;BME280;32463;48.298;11.620;2023-05-24T12:53:06;96503.78;;;20.09;45.65
46724;BME280;32463;48.298;11.620;2023-05-24T12:55:32;96493.25;;;20.09;45.58
46724;BME280;32463;48.298;11.620;2023-05-24T12:57:59;96490.94;;;20.19;45.68
46724;BME280;32463;48.298;11.620;2023-05-24T13:00:28;96495.88;;;20.41;44.73
46724;BME280;32463;48.298;11.620;2023-05-24T13:02:56;96498.16;;;20.31;44.91
46724;BME280;32463;48.298;11.620;2023-05-24T13:05:25;96497.72;;;20.09;46.51
46724;BME280;32463;48.298;11.620;2023-05-24T13:07:53;96501.34;;;19.38;46.16
46724;BME280;32463;48.298;11.620;2023-05-24T13:10:24;96499.94;;;18.91;47.55
46724;BME280;32463;48.298;11.620;2023-05-24T13:12:51;96494.69;;;18.78;47.12